This is the latest recevied weather packets stored in our database for station/object IU1CYJ. If no packets are shown the sender has not sent any weather packets the latest 10 day(s).
| Time | Temp. | Humidity | Pressure | Rain* | Wind** | Luminosity | Snow |
|---|---|---|---|---|---|---|---|
| 1777743056 | 21.11° C | 46% | 1020.2 hPa | 0 mm | - | - | - |
| 1777739461 | 21.67° C | 43% | 1020.5 hPa | 0 mm | - | - | - |
| 1777737656 | 21.67° C | 44% | 1020.9 hPa | 0 mm | - | - | - |
| 1777734957 | 21.67° C | 44% | 1021.3 hPa | 0 mm | - | - | - |
| 1777731357 | 21.67° C | 42% | 1022.1 hPa | 0 mm | - | - | - |
| 1777728655 | 21.11° C | 43% | 1023 hPa | 0 mm | - | - | - |
| 1777726869 | 21.11° C | 44% | 1023.4 hPa | 0 mm | - | - | - |
| 1777725960 | 21.11° C | 44% | 1023.5 hPa | 0 mm | - | - | - |
| 1777723261 | 21.11° C | 47% | 1024.1 hPa | 0 mm | - | - | - |
| 1777722354 | 20.56° C | 46% | 1024.3 hPa | 0 mm | - | - | - |
| 1777721452 | 21.11° C | 47% | 1024.5 hPa | 0 mm | - | - | - |
| 1777717854 | 20° C | 48% | 1025.6 hPa | 0 mm | - | - | - |
| 1777716953 | 20° C | 46% | 1025.7 hPa | 0 mm | - | - | - |
| 1777715156 | 21.11° C | 47% | 1025.9 hPa | 0 mm | - | - | - |
| 1777714281 | 20.56° C | 50% | 1026.2 hPa | 0 mm | - | - | - |
| 1777713356 | 20° C | 53% | 1026.3 hPa | 0 mm | - | - | - |
| 1777706154 | 15.56° C | 71% | 1027 hPa | 0 mm | - | - | - |
| 1777696255 | 8.89° C | 86% | 1026.8 hPa | 0 mm | - | - | - |
| 1777694463 | 8.89° C | 85% | 1026.6 hPa | 0 mm | - | - | - |
| 1777693556 | 8.89° C | 85% | 1026.6 hPa | 0 mm | - | - | - |
| 1777690855 | 9.44° C | 83% | 1026.5 hPa | 0 mm | - | - | - |
| 1777688154 | 10° C | 81% | 1026.4 hPa | 0 mm | - | - | - |
| 1777687252 | 10.56° C | 81% | 1026.3 hPa | 0 mm | - | - | - |
| 1777681853 | 11.11° C | 78% | 1026.4 hPa | 0 mm | - | - | - |
| 1777680955 | 11.11° C | 78% | 1026.5 hPa | 0 mm | - | - | - |
* Rain latest hour (hover to see other rain measurements)
** Current wind speed in m/s (hover to see current wind gust speed)